Terminal Aerodrome Forecast
Issued by NWS

Home | Current Version | Previous Version | Text Only | Print | Product List | Glossary On
Versions: 1 2 3 4 5 6 7 8 9 10 11 12 13 14 15 16 17 18 19 20 21 22 23
000
FTUS43 KDLH 231700
TAFHIB
TAF
KHIB 231729Z 2318/2418 24008G14KT P6SM SCT060
     FM240000 22004KT P6SM SCT200
     FM240900 VRB03KT P6SM BKN080
     FM241600 13006KT P6SM OVC050=

USA.gov is the U.S. government's official web portal to all federal, state and local government web resources and services.